Terminal Aerodrome Forecast
Issued by NWS Charleston, WV

Current Version | Previous Version | Graphics & Text | Print | Product List | Glossary On
Versions: 1 2 3 4 5 6 7 8 9 10 11 12 13 14 15 16 17 18 19 20 21
000
FTUS41 KRLX 171100
TAFHTS
TAF
KHTS 171132Z 1712/1812 26008KT P6SM -DZ OVC012
      TEMPO 1712/1714 5SM -DZ OVC008
     FM171900 26007KT P6SM OVC018
     FM172100 26007KT P6SM OVC030
     FM172300 26007KT P6SM OVC016=

USA.gov is the U.S. government's official web portal to all federal, state and local government web resources and services.